createdAt,value
2023-08-19T00:00:21.384Z,25.58
2023-08-19T00:02:48.518Z,25.63
2023-08-19T00:05:15.902Z,25.44
2023-08-19T00:07:45.875Z,25.53
2023-08-19T00:10:12.953Z,25.35
2023-08-19T00:12:39.960Z,25.44
2023-08-19T00:15:08.108Z,25.48
2023-08-19T00:17:35.444Z,25.55
2023-08-19T00:20:02.605Z,25.58
2023-08-19T00:22:29.573Z,25.57
2023-08-19T00:24:59.250Z,25.32
2023-08-19T00:27:26.515Z,25.30
2023-08-19T00:29:53.670Z,25.21
2023-08-19T00:32:20.764Z,25.35
2023-08-19T00:34:47.887Z,25.30
2023-08-19T00:37:14.951Z,25.31
2023-08-19T00:39:42.024Z,25.26
2023-08-19T00:42:11.733Z,25.21
2023-08-19T00:44:38.763Z,25.18
2023-08-19T00:47:06.319Z,25.06
2023-08-19T00:49:33.900Z,25.12
2023-08-19T00:52:02.607Z,24.93
2023-08-19T00:54:30.478Z,25.02
2023-08-19T00:56:57.720Z,25.14
2023-08-19T00:59:28.468Z,25.05
2023-08-19T01:01:55.493Z,25.18
2023-08-19T01:04:22.661Z,24.96
2023-08-19T01:07:05.032Z,24.96
2023-08-19T01:09:44.615Z,24.80
2023-08-19T01:12:24.559Z,24.74
2023-08-19T01:15:07.194Z,25.00
2023-08-19T01:17:37.125Z,24.97
2023-08-19T01:20:05.738Z,24.85
2023-08-19T01:22:45.823Z,24.96
2023-08-19T01:25:17.306Z,24.93
2023-08-19T01:27:45.462Z,24.92
2023-08-19T01:30:13.880Z,24.82
2023-08-19T01:32:41.565Z,24.79
2023-08-19T01:35:10.108Z,24.84
2023-08-19T01:37:47.354Z,24.93
2023-08-19T01:40:17.930Z,24.84
2023-08-19T01:42:46.169Z,24.89
2023-08-19T01:45:13.951Z,24.88
2023-08-19T01:47:41.905Z,24.82
2023-08-19T01:50:09.442Z,24.92
2023-08-19T01:52:37.501Z,24.88
2023-08-19T01:55:05.491Z,24.82
2023-08-19T01:57:35.410Z,24.75
2023-08-19T02:00:02.555Z,24.86
2023-08-19T02:02:29.615Z,24.80
2023-08-19T02:04:56.883Z,24.81
2023-08-19T02:07:24.008Z,24.76
2023-08-19T02:09:51.271Z,24.54
2023-08-19T02:12:18.364Z,24.59
2023-08-19T02:14:48.251Z,24.56
2023-08-19T02:17:15.310Z,24.60
2023-08-19T02:19:42.412Z,24.49
2023-08-19T02:22:09.487Z,24.52
2023-08-19T02:24:36.492Z,24.56
2023-08-19T02:27:04.125Z,24.52
2023-08-19T02:29:31.225Z,24.43
2023-08-19T02:32:00.901Z,24.42
2023-08-19T02:34:27.949Z,24.41
2023-08-19T02:36:55.008Z,24.39
2023-08-19T02:39:22.105Z,24.38
2023-08-19T02:41:49.322Z,24.27
2023-08-19T02:44:16.434Z,24.25
2023-08-19T02:46:43.528Z,24.26
2023-08-19T02:49:13.296Z,24.19
2023-08-19T02:51:40.388Z,24.23
2023-08-19T02:54:07.938Z,24.13
2023-08-19T02:56:35.009Z,24.15
2023-08-19T02:59:02.118Z,24.11
2023-08-19T03:01:29.173Z,24.07
2023-08-19T03:03:56.232Z,24.07
2023-08-19T03:06:25.947Z,24.02
2023-08-19T03:08:52.941Z,24.06
2023-08-19T03:11:19.994Z,24.02
2023-08-19T03:13:47.135Z,23.98
2023-08-19T03:16:14.173Z,23.97
2023-08-19T03:18:41.207Z,24.07
2023-08-19T03:21:08.290Z,24.04
2023-08-19T03:23:37.913Z,24.05
2023-08-19T03:26:05.023Z,23.98
2023-08-19T03:28:32.042Z,23.99
2023-08-19T03:30:59.075Z,23.86
2023-08-19T03:33:26.220Z,23.88
2023-08-19T03:35:58.801Z,23.86
2023-08-19T03:38:25.845Z,23.76
2023-08-19T03:40:55.539Z,23.80
2023-08-19T03:43:22.661Z,23.78
2023-08-19T03:45:49.714Z,23.74
2023-08-19T03:48:16.783Z,23.77
2023-08-19T03:50:43.883Z,23.78
2023-08-19T03:53:10.964Z,23.74
2023-08-19T03:55:38.052Z,23.72
2023-08-19T03:58:07.697Z,23.71
2023-08-19T04:00:34.767Z,23.66
2023-08-19T04:03:01.859Z,23.59
2023-08-19T04:05:28.882Z,23.68
2023-08-19T04:07:55.914Z,23.58
2023-08-19T04:10:23.007Z,23.56
2023-08-19T04:12:50.092Z,23.56
2023-08-19T04:15:19.737Z,23.57
2023-08-19T04:17:46.871Z,23.51
2023-08-19T04:20:14.009Z,23.50
2023-08-19T04:22:41.090Z,23.15
2023-08-19T04:25:08.950Z,23.17
2023-08-19T04:27:36.065Z,23.34
2023-08-19T04:30:03.484Z,23.37
2023-08-19T04:32:33.136Z,23.49
2023-08-19T04:35:00.254Z,23.52
2023-08-19T04:37:27.277Z,23.43
2023-08-19T04:39:54.331Z,23.45
2023-08-19T04:42:21.324Z,23.39
2023-08-19T04:44:48.396Z,23.45
2023-08-19T04:47:15.445Z,23.33
2023-08-19T04:49:45.191Z,23.39
2023-08-19T04:52:12.239Z,23.41
2023-08-19T04:54:39.421Z,23.49
2023-08-19T04:57:06.756Z,23.49
2023-08-19T04:59:33.813Z,23.54
2023-08-19T05:02:01.016Z,23.54
2023-08-19T05:04:28.140Z,23.52
2023-08-19T05:06:57.852Z,23.45
2023-08-19T05:09:24.891Z,23.58
2023-08-19T05:11:51.895Z,23.38
2023-08-19T05:14:18.975Z,23.26
2023-08-19T05:16:46.042Z,23.35
2023-08-19T05:19:17.339Z,23.54
2023-08-19T05:21:44.644Z,23.57
2023-08-19T05:24:15.763Z,23.63
2023-08-19T05:26:43.631Z,23.52
2023-08-19T05:29:10.688Z,23.43
2023-08-19T05:31:37.769Z,23.40
2023-08-19T05:34:04.895Z,23.49
2023-08-19T05:36:31.921Z,23.38
2023-08-19T05:38:59.000Z,23.41
2023-08-19T05:41:28.707Z,23.46
2023-08-19T05:43:55.826Z,23.42
2023-08-19T05:46:23.026Z,23.48
2023-08-19T05:48:50.151Z,23.40
2023-08-19T05:51:17.220Z,23.36
2023-08-19T05:53:44.264Z,23.70
2023-08-19T05:56:11.388Z,23.60
2023-08-19T05:58:41.071Z,23.59
2023-08-19T06:01:08.215Z,23.58
2023-08-19T06:03:35.657Z,23.55
2023-08-19T06:06:06.562Z,23.69
2023-08-19T06:08:34.087Z,23.59
2023-08-19T06:11:01.360Z,23.72
2023-08-19T06:13:28.429Z,23.78
2023-08-19T06:15:58.807Z,23.75
2023-08-19T06:18:26.626Z,23.63
2023-08-19T06:20:54.071Z,23.59
2023-08-19T06:23:21.142Z,23.74
2023-08-19T06:25:50.681Z,23.88
2023-08-19T06:28:18.127Z,23.89
2023-08-19T06:30:46.228Z,23.92
2023-08-19T06:33:16.934Z,23.96
2023-08-19T06:35:47.435Z,24.14
2023-08-19T06:38:19.013Z,24.25
2023-08-19T06:40:56.065Z,24.28
2023-08-19T06:43:26.321Z,24.24
2023-08-19T06:45:55.349Z,24.25
2023-08-19T06:48:26.107Z,24.27
2023-08-19T06:50:54.656Z,24.33
2023-08-19T06:53:23.183Z,24.40
2023-08-19T06:56:05.076Z,24.41
2023-08-19T06:58:42.785Z,24.46
2023-08-19T07:01:17.445Z,24.46
2023-08-19T07:03:50.370Z,24.46
2023-08-19T07:06:21.529Z,24.55
2023-08-19T07:08:50.119Z,24.60
2023-08-19T07:11:17.763Z,24.71
2023-08-19T07:13:45.587Z,24.76
2023-08-19T07:16:16.198Z,24.91
2023-08-19T07:18:48.615Z,24.95
2023-08-19T07:21:18.040Z,24.90
2023-08-19T07:23:49.376Z,24.97
2023-08-19T07:26:20.823Z,24.94
2023-08-19T07:28:48.536Z,25.05
2023-08-19T07:31:18.554Z,25.16
2023-08-19T07:33:48.326Z,25.31
2023-08-19T07:36:15.542Z,25.32
2023-08-19T07:38:42.697Z,25.44
2023-08-19T07:41:10.172Z,25.47
2023-08-19T07:43:37.211Z,25.43
2023-08-19T07:46:04.221Z,25.54
2023-08-19T07:48:31.275Z,25.75
2023-08-19T07:51:01.030Z,25.78
2023-08-19T07:53:28.053Z,25.82
2023-08-19T07:55:55.081Z,25.76
2023-08-19T07:58:22.137Z,25.85
2023-08-19T08:00:49.215Z,25.98
2023-08-19T08:03:16.275Z,26.11
2023-08-19T08:05:43.377Z,26.23
2023-08-19T08:08:13.070Z,26.21
2023-08-19T08:10:41.211Z,26.27
2023-08-19T08:13:08.367Z,26.38
2023-08-19T08:15:35.458Z,26.42
2023-08-19T08:18:02.610Z,26.51
2023-08-19T08:20:29.779Z,26.62
2023-08-19T08:22:56.799Z,26.74
2023-08-19T08:25:26.423Z,26.82
2023-08-19T08:27:53.483Z,26.92
2023-08-19T08:30:20.691Z,27.04
2023-08-19T08:32:47.822Z,27.21
2023-08-19T08:35:14.969Z,27.43
2023-08-19T08:37:42.034Z,27.61
2023-08-19T08:40:10.186Z,27.72
2023-08-19T08:42:41.604Z,28.00
2023-08-19T08:45:11.250Z,28.19
2023-08-19T08:47:39.879Z,28.39
2023-08-19T08:50:08.543Z,28.66
2023-08-19T08:52:36.572Z,28.72
2023-08-19T08:55:06.671Z,28.91
2023-08-19T08:57:34.055Z,28.75
2023-08-19T09:00:04.771Z,28.81
2023-08-19T09:02:34.411Z,28.87
2023-08-19T09:05:07.636Z,28.99
2023-08-19T09:07:39.928Z,28.99
2023-08-19T09:10:12.474Z,29.04
2023-08-19T09:12:43.465Z,29.16
2023-08-19T09:15:17.392Z,29.10
2023-08-19T09:17:45.815Z,29.09
2023-08-19T09:20:14.083Z,29.08
2023-08-19T09:22:41.193Z,29.33
2023-08-19T09:25:09.041Z,29.39
2023-08-19T09:27:36.086Z,29.45
2023-08-19T09:30:03.697Z,29.53
2023-08-19T09:32:35.615Z,29.61
2023-08-19T09:35:05.500Z,29.82
2023-08-19T09:37:33.712Z,29.93
2023-08-19T09:40:01.444Z,29.97
2023-08-19T09:42:28.954Z,30.15
2023-08-19T09:44:56.222Z,30.21
2023-08-19T09:47:23.354Z,30.50
2023-08-19T09:49:58.474Z,30.46
2023-08-19T09:52:25.546Z,30.67
2023-08-19T09:54:53.018Z,30.93
2023-08-19T09:57:20.339Z,31.02
2023-08-19T09:59:47.562Z,31.13
2023-08-19T10:02:15.876Z,31.46
2023-08-19T10:04:42.932Z,31.75
2023-08-19T10:07:17.720Z,31.47
2023-08-19T10:09:44.764Z,31.50
2023-08-19T10:12:14.093Z,31.44
2023-08-19T10:14:48.396Z,31.79
2023-08-19T10:17:17.032Z,31.72
2023-08-19T10:19:51.526Z,31.35
2023-08-19T10:22:22.348Z,31.28
2023-08-19T10:24:52.517Z,31.22
2023-08-19T10:27:20.155Z,31.23
2023-08-19T10:29:47.821Z,31.09
2023-08-19T10:32:29.521Z,31.08
2023-08-19T10:35:04.917Z,31.07
2023-08-19T10:37:34.598Z,31.22
2023-08-19T10:40:08.967Z,31.26
2023-08-19T10:42:36.107Z,31.04
2023-08-19T10:45:03.442Z,31.08
2023-08-19T10:47:30.538Z,31.36
2023-08-19T10:50:02.747Z,31.20
2023-08-19T10:52:29.985Z,31.12
2023-08-19T10:55:00.418Z,31.27
2023-08-19T10:57:28.158Z,31.14
2023-08-19T10:59:56.651Z,31.27
2023-08-19T11:02:24.569Z,31.47
2023-08-19T11:04:53.013Z,31.49
2023-08-19T11:07:21.590Z,31.79
2023-08-19T11:09:50.269Z,31.87
2023-08-19T11:12:22.246Z,32.54
2023-08-19T11:14:51.315Z,32.51
2023-08-19T11:17:19.928Z,32.54
2023-08-19T11:19:47.142Z,32.21
2023-08-19T11:22:16.216Z,32.58
2023-08-19T11:24:43.572Z,32.45
2023-08-19T11:27:10.718Z,32.20
2023-08-19T11:29:40.764Z,32.50
2023-08-19T11:32:08.040Z,32.06
2023-08-19T11:34:35.120Z,32.43
2023-08-19T11:37:05.152Z,32.44
2023-08-19T11:39:33.634Z,32.69
2023-08-19T11:42:01.493Z,32.71
2023-08-19T11:44:28.685Z,32.62
2023-08-19T11:46:58.456Z,32.44
2023-08-19T11:49:29.591Z,32.02
2023-08-19T11:51:56.944Z,32.11
2023-08-19T11:54:24.232Z,31.80
2023-08-19T11:56:53.111Z,31.79
2023-08-19T11:59:31.170Z,31.46
2023-08-19T12:02:05.444Z,31.25
2023-08-19T12:04:33.517Z,31.41
2023-08-19T12:07:04.874Z,31.09
2023-08-19T12:09:32.938Z,31.00
2023-08-19T12:12:02.859Z,31.01
2023-08-19T12:14:30.040Z,31.17
2023-08-19T12:16:57.087Z,31.15
2023-08-19T12:19:26.782Z,31.04
2023-08-19T12:21:53.851Z,30.87
2023-08-19T12:24:20.853Z,30.88
2023-08-19T12:26:47.871Z,30.54
2023-08-19T12:29:14.948Z,30.35
2023-08-19T12:31:42.013Z,30.39
2023-08-19T12:34:09.143Z,30.23
2023-08-19T12:36:38.875Z,30.08
2023-08-19T12:39:06.257Z,30.25
2023-08-19T12:41:33.318Z,29.92
2023-08-19T12:44:00.467Z,29.89
2023-08-19T12:46:31.169Z,29.81
2023-08-19T12:48:58.234Z,29.73
2023-08-19T12:51:25.349Z,29.62
2023-08-19T12:53:56.747Z,29.56
2023-08-19T12:56:24.003Z,29.54
2023-08-19T12:58:51.138Z,29.60
2023-08-19T13:01:18.251Z,29.51
2023-08-19T13:03:45.285Z,29.52
2023-08-19T13:06:13.899Z,29.65
2023-08-19T13:08:40.966Z,29.47
2023-08-19T13:11:10.959Z,29.38
2023-08-19T13:13:38.006Z,29.48
2023-08-19T13:16:05.180Z,29.44
2023-08-19T13:18:32.207Z,29.45
2023-08-19T13:21:02.170Z,29.50
2023-08-19T13:23:35.057Z,29.47
2023-08-19T13:26:02.222Z,29.50
2023-08-19T13:28:31.915Z,29.41
2023-08-19T13:30:59.060Z,29.32
2023-08-19T13:33:27.489Z,29.50
2023-08-19T13:35:54.559Z,29.51
2023-08-19T13:38:21.577Z,29.55
2023-08-19T13:40:48.671Z,29.54
2023-08-19T13:43:15.748Z,29.53
2023-08-19T13:45:45.386Z,29.49
2023-08-19T13:48:15.238Z,29.63
2023-08-19T13:50:43.367Z,29.59
2023-08-19T13:53:10.421Z,29.63
2023-08-19T13:55:37.523Z,29.74
2023-08-19T13:58:04.793Z,29.85
2023-08-19T14:00:31.858Z,29.95
2023-08-19T14:03:01.685Z,30.08
2023-08-19T14:05:28.886Z,30.18
2023-08-19T14:07:56.003Z,30.20
2023-08-19T14:10:23.077Z,30.40
2023-08-19T14:12:50.114Z,30.50
2023-08-19T14:15:17.322Z,30.59
2023-08-19T14:17:44.372Z,31.08
2023-08-19T14:20:14.161Z,32.42
2023-08-19T14:22:41.599Z,33.16
2023-08-19T14:25:09.800Z,33.48
2023-08-19T14:27:37.058Z,36.11
2023-08-19T14:30:05.396Z,36.49
2023-08-19T14:32:32.487Z,35.29
2023-08-19T14:34:59.559Z,35.11
2023-08-19T14:37:29.183Z,37.11
2023-08-19T14:39:56.210Z,40.09
2023-08-19T14:42:23.883Z,35.54
2023-08-19T14:44:51.018Z,34.46
2023-08-19T14:47:18.126Z,35.06
2023-08-19T14:49:45.193Z,34.34
2023-08-19T14:52:12.295Z,34.84
2023-08-19T14:54:42.103Z,34.30
2023-08-19T14:57:09.366Z,33.84
2023-08-19T14:59:36.499Z,34.24
2023-08-19T15:02:03.999Z,33.82
2023-08-19T15:04:31.200Z,33.30
2023-08-19T15:06:58.306Z,33.19
2023-08-19T15:09:27.241Z,32.92
2023-08-19T15:11:57.326Z,32.86
2023-08-19T15:14:24.447Z,32.83
2023-08-19T15:16:51.514Z,32.84
2023-08-19T15:19:18.583Z,32.84
2023-08-19T15:21:45.668Z,32.48
2023-08-19T15:24:13.161Z,32.56
2023-08-19T15:26:40.256Z,32.47
2023-08-19T15:29:09.927Z,32.16
2023-08-19T15:31:37.084Z,32.22
2023-08-19T15:34:04.707Z,32.41
2023-08-19T15:36:31.882Z,32.32
2023-08-19T15:38:58.990Z,32.95
2023-08-19T15:41:26.119Z,33.30
2023-08-19T15:43:53.248Z,33.75
2023-08-19T15:46:23.136Z,34.78
2023-08-19T15:48:50.212Z,33.70
2023-08-19T15:51:17.246Z,33.44
2023-08-19T15:53:44.374Z,33.01
2023-08-19T15:56:11.476Z,33.17
2023-08-19T15:58:39.903Z,32.69
2023-08-19T16:01:07.405Z,32.32
2023-08-19T16:03:37.255Z,32.29
2023-08-19T16:06:04.856Z,32.00
2023-08-19T16:08:31.914Z,31.52
2023-08-19T16:11:02.260Z,31.22
2023-08-19T16:13:30.167Z,30.89
2023-08-19T16:15:57.357Z,30.56
2023-08-19T16:18:24.748Z,30.44
2023-08-19T16:20:54.559Z,30.33
2023-08-19T16:23:21.646Z,30.14
2023-08-19T16:25:48.681Z,30.15
2023-08-19T16:28:15.729Z,30.04
2023-08-19T16:30:43.465Z,30.16
2023-08-19T16:33:10.807Z,30.15
2023-08-19T16:35:38.075Z,30.26
2023-08-19T16:38:07.912Z,30.08
2023-08-19T16:40:35.365Z,30.16
2023-08-19T16:43:03.664Z,30.12
2023-08-19T16:45:30.803Z,30.00
2023-08-19T16:47:58.062Z,29.87
2023-08-19T16:50:25.207Z,29.74
2023-08-19T16:52:52.245Z,29.77
2023-08-19T16:55:22.007Z,29.87
2023-08-19T16:57:49.102Z,29.90
2023-08-19T17:00:17.270Z,30.56
2023-08-19T17:02:44.279Z,31.03
2023-08-19T17:05:11.456Z,30.61
2023-08-19T17:07:38.518Z,30.51
2023-08-19T17:10:07.182Z,30.14
2023-08-19T17:12:36.867Z,30.16
2023-08-19T17:15:04.508Z,30.38
2023-08-19T17:17:33.686Z,30.17
2023-08-19T17:20:01.055Z,30.26
2023-08-19T17:22:37.120Z,29.98
2023-08-19T17:25:04.883Z,29.82
2023-08-19T17:27:32.420Z,29.60
2023-08-19T17:30:02.440Z,29.79
2023-08-19T17:32:29.559Z,29.72
2023-08-19T17:34:56.652Z,29.60
2023-08-19T17:37:23.640Z,29.50
2023-08-19T17:39:50.765Z,29.39
2023-08-19T17:42:19.718Z,29.37
2023-08-19T17:44:52.243Z,29.42
2023-08-19T17:47:21.948Z,29.35
2023-08-19T17:49:49.152Z,29.28
2023-08-19T17:52:16.219Z,29.25
2023-08-19T17:54:43.275Z,29.12
2023-08-19T17:57:10.356Z,29.08
2023-08-19T17:59:37.407Z,29.04
2023-08-19T18:02:04.578Z,28.88
2023-08-19T18:04:34.461Z,28.86
2023-08-19T18:07:01.684Z,28.82
2023-08-19T18:09:28.785Z,28.80
2023-08-19T18:11:55.905Z,28.75
2023-08-19T18:14:24.197Z,28.80
2023-08-19T18:16:51.374Z,28.77
2023-08-19T18:19:28.948Z,28.82
2023-08-19T18:21:58.813Z,28.73
2023-08-19T18:24:26.397Z,28.68
2023-08-19T18:26:53.472Z,28.49
2023-08-19T18:29:20.563Z,28.33
2023-08-19T18:31:47.683Z,28.34
2023-08-19T18:34:14.831Z,28.28
2023-08-19T18:36:42.635Z,28.22
2023-08-19T18:39:12.274Z,28.24
2023-08-19T18:41:39.348Z,28.06
2023-08-19T18:44:06.630Z,27.94
2023-08-19T18:46:33.756Z,27.84
2023-08-19T18:49:00.791Z,27.86
2023-08-19T18:51:27.838Z,27.83
2023-08-19T18:53:54.920Z,27.86
2023-08-19T18:56:24.606Z,27.78
2023-08-19T18:58:51.665Z,27.80
2023-08-19T19:01:18.724Z,27.77
2023-08-19T19:03:45.757Z,27.61
2023-08-19T19:06:12.878Z,27.54
2023-08-19T19:08:39.955Z,27.49
2023-08-19T19:11:07.029Z,27.53
2023-08-19T19:13:36.768Z,27.54
2023-08-19T19:16:04.002Z,27.50
2023-08-19T19:18:31.132Z,27.49
2023-08-19T19:20:59.725Z,27.29
2023-08-19T19:23:26.894Z,27.38
2023-08-19T19:25:54.004Z,27.39
2023-08-19T19:28:21.074Z,27.34
2023-08-19T19:30:50.776Z,27.41
2023-08-19T19:33:17.803Z,27.26
2023-08-19T19:35:46.651Z,27.27
2023-08-19T19:38:13.730Z,27.29
2023-08-19T19:40:40.909Z,27.18
2023-08-19T19:43:08.403Z,27.16
2023-08-19T19:45:35.517Z,27.14
2023-08-19T19:48:05.817Z,27.21
2023-08-19T19:50:32.909Z,27.12
2023-08-19T19:53:00.726Z,27.09
2023-08-19T19:55:27.872Z,27.07
2023-08-19T19:57:54.957Z,27.01
2023-08-19T20:00:22.103Z,27.12
2023-08-19T20:02:49.233Z,27.01
2023-08-19T20:05:19.152Z,27.08
2023-08-19T20:07:46.209Z,27.09
2023-08-19T20:10:26.865Z,27.02
2023-08-19T20:12:55.754Z,26.99
2023-08-19T20:15:23.058Z,26.88
2023-08-19T20:17:50.319Z,26.98
2023-08-19T20:20:20.261Z,26.97
2023-08-19T20:22:50.301Z,27.00
2023-08-19T20:25:17.613Z,26.90
2023-08-19T20:27:46.169Z,26.83
2023-08-19T20:30:13.414Z,26.89
2023-08-19T20:32:40.670Z,26.86
2023-08-19T20:35:08.824Z,26.81
2023-08-19T20:37:38.701Z,26.73
2023-08-19T20:40:07.593Z,26.74
2023-08-19T20:42:34.745Z,26.80
2023-08-19T20:45:01.825Z,26.76
2023-08-19T20:47:28.934Z,26.75
2023-08-19T20:49:56.016Z,26.68
2023-08-19T20:52:23.106Z,26.76
2023-08-19T20:54:52.771Z,26.72
2023-08-19T20:57:19.808Z,26.73
2023-08-19T20:59:46.826Z,26.73
2023-08-19T21:02:13.963Z,26.62
2023-08-19T21:04:41.084Z,26.57
2023-08-19T21:07:08.384Z,26.61
2023-08-19T21:09:35.500Z,26.61
2023-08-19T21:12:06.140Z,26.62
2023-08-19T21:14:33.271Z,26.58
2023-08-19T21:17:00.436Z,26.60
2023-08-19T21:19:27.525Z,26.64
2023-08-19T21:21:54.721Z,26.58
2023-08-19T21:24:22.237Z,26.58
2023-08-19T21:26:49.274Z,26.58
2023-08-19T21:29:19.069Z,26.41
2023-08-19T21:31:46.153Z,26.44
2023-08-19T21:34:13.345Z,26.40
2023-08-19T21:36:40.404Z,26.37
2023-08-19T21:39:07.577Z,26.36
2023-08-19T21:41:34.729Z,26.37
2023-08-19T21:44:01.892Z,26.43
2023-08-19T21:46:31.554Z,26.39
2023-08-19T21:48:58.898Z,26.30
2023-08-19T21:51:26.081Z,26.39
2023-08-19T21:53:53.208Z,26.36
2023-08-19T21:56:20.340Z,26.43
2023-08-19T21:58:47.441Z,26.45
2023-08-19T22:01:14.810Z,26.48
2023-08-19T22:03:45.082Z,26.32
2023-08-19T22:06:12.142Z,26.27
2023-08-19T22:08:39.560Z,26.17
2023-08-19T22:11:06.669Z,26.24
2023-08-19T22:13:33.697Z,26.30
2023-08-19T22:16:00.793Z,26.18
2023-08-19T22:18:27.875Z,26.13
2023-08-19T22:20:57.555Z,25.99
2023-08-19T22:23:24.649Z,26.15
2023-08-19T22:25:51.784Z,26.08
2023-08-19T22:28:18.801Z,26.03
2023-08-19T22:30:46.029Z,26.07
2023-08-19T22:33:13.139Z,26.03
2023-08-19T22:35:42.888Z,26.03
2023-08-19T22:38:12.646Z,25.98
2023-08-19T22:40:39.796Z,26.01
2023-08-19T22:43:06.933Z,25.84
2023-08-19T22:45:33.982Z,25.91
2023-08-19T22:48:01.189Z,26.00
2023-08-19T22:50:28.315Z,25.94
2023-08-19T22:52:55.342Z,25.91
2023-08-19T22:55:24.993Z,25.76
2023-08-19T22:57:52.060Z,25.79
2023-08-19T23:00:19.094Z,25.80
2023-08-19T23:02:46.201Z,25.82
2023-08-19T23:05:13.362Z,25.84
2023-08-19T23:07:41.110Z,25.70
2023-08-19T23:10:10.110Z,25.67
2023-08-19T23:12:39.786Z,25.71
2023-08-19T23:15:08.235Z,25.69
2023-08-19T23:17:35.553Z,25.73
2023-08-19T23:20:02.957Z,25.65
2023-08-19T23:22:30.106Z,25.61
2023-08-19T23:24:57.125Z,25.60
2023-08-19T23:27:24.434Z,25.45
2023-08-19T23:29:54.298Z,25.49
2023-08-19T23:32:21.437Z,25.33
2023-08-19T23:34:48.546Z,25.36
2023-08-19T23:37:15.599Z,25.35
2023-08-19T23:39:42.596Z,25.32
2023-08-19T23:42:09.683Z,25.39
2023-08-19T23:44:36.734Z,25.40
2023-08-19T23:47:07.229Z,25.26
2023-08-19T23:49:35.203Z,25.41
2023-08-19T23:52:07.068Z,25.45
2023-08-19T23:54:35.020Z,25.41
2023-08-19T23:57:02.864Z,25.36
2023-08-19T23:59:30.592Z,25.37
